Time;durP1;ratioP1;P1;durP2;ratioP2;P2;SDS_P1;SDS_P2;PMS_P1;PMS_P2;Temp;Humidity;BMP_temperature;BMP_pressure;BME280_temperature;BME280_humidity;BME280_pressure;Samples;Min_cycle;Max_cycle;Signal;HPM_P1;HPM_P2
2021/05/18 00:02:20;;;;;;;17.15;3.00;;;;;;;;;;4946008;28;20041;-84
2021/05/18 00:04:48;;;;;;;15.15;3.25;;;;;;;;;;4969208;28;20041;-84
2021/05/18 00:07:22;;;;;;;14.57;2.80;;;;;;;;;;4971968;28;21878;-84
2021/05/18 00:12:34;;;;;;;17.67;2.70;;;;;;;;;;4962414;28;20514;-83
2021/05/18 00:15:04;;;;;;;14.70;2.90;;;;;;;;;;4970753;28;20049;-83
2021/05/18 00:17:30;;;;;;;16.98;3.45;;;;;;;;;;4946310;28;20031;-84
2021/05/18 00:19:57;;;;;;;17.30;3.28;;;;;;;;;;4966105;28;20038;-84
2021/05/18 00:22:26;;;;;;;16.00;3.15;;;;;;;;;;4982828;28;20448;-83
2021/05/18 00:24:53;;;;;;;15.43;2.72;;;;;;;;;;5005217;28;20041;-83
2021/05/18 00:27:23;;;;;;;16.48;3.10;;;;;;;;;;5005821;28;20053;-83
2021/05/18 00:29:49;;;;;;;14.13;2.55;;;;;;;;;;5011850;28;20033;-84
2021/05/18 00:32:17;;;;;;;12.88;2.78;;;;;;;;;;5006987;28;20095;-83
2021/05/18 00:34:52;;;;;;;19.33;3.08;;;;;;;;;;5009423;28;20025;-84
2021/05/18 00:37:21;;;;;;;12.15;2.42;;;;;;;;;;5011512;28;20114;-83
2021/05/18 00:39:48;;;;;;;17.40;2.88;;;;;;;;;;5011455;28;20042;-85
2021/05/18 00:42:19;;;;;;;12.75;2.60;;;;;;;;;;5004267;28;20033;-83
2021/05/18 00:44:46;;;;;;;17.75;3.35;;;;;;;;;;5010671;28;20427;-84
2021/05/18 00:47:12;;;;;;;16.60;2.95;;;;;;;;;;5008558;28;20656;-83
2021/05/18 00:49:42;;;;;;;12.80;2.80;;;;;;;;;;4995849;28;20045;-84
2021/05/18 00:52:08;;;;;;;16.98;2.88;;;;;;;;;;5011448;28;20049;-84
2021/05/18 00:54:43;;;;;;;15.60;3.22;;;;;;;;;;5012545;28;20017;-84
2021/05/18 01:00:09;;;;;;;16.65;2.65;;;;;;;;;;4928052;28;20498;-84
2021/05/18 01:02:37;;;;;;;17.63;2.92;;;;;;;;;;4931390;28;20046;-83
2021/05/18 01:05:15;;;;;;;16.48;3.08;;;;;;;;;;4925507;28;20608;-84
2021/05/18 01:07:42;;;;;;;15.18;2.60;;;;;;;;;;4931342;28;20043;-84
2021/05/18 01:10:08;;;;;;;15.90;2.92;;;;;;;;;;4928736;28;20094;-83
2021/05/18 01:12:37;;;;;;;12.07;2.60;;;;;;;;;;4932732;28;20034;-83
2021/05/18 01:15:06;;;;;;;16.95;3.17;;;;;;;;;;4929658;28;20061;-83
2021/05/18 01:17:33;;;;;;;16.77;3.55;;;;;;;;;;4932656;28;20050;-84
2021/05/18 01:20:13;;;;;;;13.75;2.58;;;;;;;;;;4928597;28;20039;-82
2021/05/18 01:22:47;;;;;;;15.70;3.25;;;;;;;;;;4952046;28;20026;-82
2021/05/18 01:25:16;;;;;;;17.50;2.97;;;;;;;;;;4948988;28;20042;-83
2021/05/18 01:27:45;;;;;;;18.30;2.53;;;;;;;;;;4918607;28;20042;-83
2021/05/18 01:30:14;;;;;;;13.63;2.88;;;;;;;;;;4951765;28;20165;-84
2021/05/18 01:32:42;;;;;;;13.52;2.72;;;;;;;;;;4954330;28;20031;-84
2021/05/18 01:35:13;;;;;;;11.40;2.10;;;;;;;;;;4949398;28;20069;-84
2021/05/18 01:37:41;;;;;;;18.73;3.00;;;;;;;;;;4984768;28;20053;-84
2021/05/18 01:42:56;;;;;;;13.75;2.63;;;;;;;;;;4994477;28;20128;-84
2021/05/18 01:45:29;;;;;;;16.48;3.08;;;;;;;;;;5002968;28;20037;-84
2021/05/18 01:48:06;;;;;;;15.15;2.67;;;;;;;;;;5003692;28;20037;-84
2021/05/18 01:50:45;;;;;;;13.85;2.50;;;;;;;;;;5006610;28;20626;-85
2021/05/18 01:53:13;;;;;;;13.77;2.78;;;;;;;;;;5002642;28;20134;-84
2021/05/18 01:55:58;;;;;;;14.48;2.80;;;;;;;;;;5009414;28;20096;-83
2021/05/18 01:58:27;;;;;;;13.73;2.80;;;;;;;;;;5009345;28;20039;-86
2021/05/18 02:00:54;;;;;;;16.83;2.35;;;;;;;;;;5003802;28;20539;-83
2021/05/18 02:03:21;;;;;;;14.25;2.42;;;;;;;;;;5007776;28;20032;-84
2021/05/18 02:05:56;;;;;;;16.55;2.65;;;;;;;;;;5013376;28;20026;-84
2021/05/18 02:08:24;;;;;;;14.23;2.88;;;;;;;;;;5013411;28;20046;-83
2021/05/18 02:10:52;;;;;;;15.43;2.50;;;;;;;;;;5008982;28;20036;-83
2021/05/18 02:13:20;;;;;;;17.40;3.20;;;;;;;;;;5012568;28;20102;-83
2021/05/18 02:16:00;;;;;;;15.57;2.80;;;;;;;;;;5012155;28;20072;-83
2021/05/18 02:18:37;;;;;;;15.38;2.85;;;;;;;;;;5010070;28;20113;-86
2021/05/18 02:26:38;;;;;;;14.25;3.03;;;;;;;;;;5016023;28;20713;-83
2021/05/18 02:29:05;;;;;;;15.63;3.35;;;;;;;;;;5004477;28;20034;-83
2021/05/18 02:31:33;;;;;;;15.00;2.42;;;;;;;;;;5010904;28;20099;-83
2021/05/18 02:34:02;;;;;;;12.85;2.85;;;;;;;;;;5009844;28;20301;-84
2021/05/18 02:36:29;;;;;;;15.18;2.95;;;;;;;;;;5011770;28;20033;-83
2021/05/18 02:38:57;;;;;;;11.90;2.53;;;;;;;;;;5023326;28;20060;-84
2021/05/18 02:41:24;;;;;;;17.30;3.05;;;;;;;;;;5010262;28;20056;-83
2021/05/18 02:49:14;;;;;;;18.13;2.83;;;;;;;;;;5004738;28;20029;-85
2021/05/18 02:51:47;;;;;;;12.35;2.42;;;;;;;;;;5011036;28;20489;-85
2021/05/18 02:54:17;;;;;;;13.90;2.60;;;;;;;;;;5014251;28;20865;-83
2021/05/18 02:57:03;;;;;;;18.80;2.63;;;;;;;;;;5015412;28;20548;-83
2021/05/18 02:59:31;;;;;;;14.90;2.88;;;;;;;;;;5014915;28;20029;-83
2021/05/18 03:01:59;;;;;;;17.00;3.30;;;;;;;;;;5015731;28;20061;-83
2021/05/18 03:04:26;;;;;;;16.33;3.13;;;;;;;;;;5016712;28;20029;-83
2021/05/18 03:06:55;;;;;;;12.68;2.72;;;;;;;;;;5015438;28;20060;-82
2021/05/18 03:09:24;;;;;;;15.77;3.15;;;;;;;;;;5015313;28;20031;-83
2021/05/18 03:11:53;;;;;;;17.33;3.10;;;;;;;;;;5015258;28;20022;-83
2021/05/18 03:14:21;;;;;;;15.80;3.13;;;;;;;;;;4995454;28;20112;-83
2021/05/18 03:16:50;;;;;;;13.55;2.85;;;;;;;;;;4996259;28;20045;-84
2021/05/18 03:19:18;;;;;;;16.05;2.85;;;;;;;;;;4990738;28;20041;-81
2021/05/18 03:21:46;;;;;;;15.98;2.85;;;;;;;;;;4992235;28;20157;-82
2021/05/18 03:24:14;;;;;;;16.05;2.72;;;;;;;;;;4973476;28;20046;-83
2021/05/18 03:26:48;;;;;;;18.63;3.33;;;;;;;;;;4949886;28;20034;-83
2021/05/18 03:29:27;;;;;;;12.80;2.47;;;;;;;;;;4991544;28;20034;-83
2021/05/18 03:34:42;;;;;;;17.33;2.97;;;;;;;;;;4993858;28;20639;-83
2021/05/18 03:37:34;;;;;;;17.40;2.67;;;;;;;;;;4992935;28;20817;-84
2021/05/18 03:40:09;;;;;;;15.90;2.92;;;;;;;;;;4988094;28;20034;-83
2021/05/18 03:42:51;;;;;;;16.10;2.58;;;;;;;;;;4995497;28;20034;-83
2021/05/18 03:45:21;;;;;;;13.43;2.47;;;;;;;;;;4993114;28;20046;-84
2021/05/18 03:53:44;;;;;;;21.02;3.47;;;;;;;;;;4993828;28;20041;-83
2021/05/18 04:04:32;;;;;;;11.90;2.35;;;;;;;;;;4997771;28;20196;-83
2021/05/18 04:12:48;;;;;;;15.88;3.10;;;;;;;;;;5017684;28;20127;-84
2021/05/18 04:18:15;;;;;;;10.88;2.72;;;;;;;;;;5016584;28;20048;-82
2021/05/18 04:21:04;;;;;;;11.98;2.78;;;;;;;;;;5021410;28;20034;-82
2021/05/18 04:40:38;;;;;;;15.05;3.13;;;;;;;;;;5010761;28;20091;-82
2021/05/18 04:50:57;;;;;;;22.88;2.97;;;;;;;;;;5020286;28;20040;-83
2021/05/18 04:59:04;;;;;;;12.20;2.50;;;;;;;;;;5010679;28;20100;-81
2021/05/18 05:09:31;;;;;;;18.02;3.35;;;;;;;;;;5013424;28;20059;-82
2021/05/18 05:14:47;;;;;;;15.98;2.88;;;;;;;;;;5013026;28;20052;-81
2021/05/18 05:17:17;;;;;;;12.65;2.50;;;;;;;;;;5004521;28;21120;-79
2021/05/18 05:19:45;;;;;;;17.90;2.70;;;;;;;;;;5004427;28;20044;-81
2021/05/18 05:22:13;;;;;;;14.77;3.05;;;;;;;;;;5004697;28;20037;-81
2021/05/18 05:24:44;;;;;;;13.00;2.55;;;;;;;;;;5006991;28;20166;-80
2021/05/18 05:27:14;;;;;;;14.15;2.47;;;;;;;;;;5004068;28;20101;-80
2021/05/18 05:29:42;;;;;;;14.57;3.00;;;;;;;;;;4991333;28;20036;-81
2021/05/18 05:32:18;;;;;;;17.30;3.47;;;;;;;;;;5005404;28;20890;-81
2021/05/18 05:34:48;;;;;;;14.82;2.50;;;;;;;;;;5008433;28;20138;-81
2021/05/18 05:37:17;;;;;;;12.77;2.63;;;;;;;;;;5003987;28;20057;-81
2021/05/18 05:39:44;;;;;;;12.65;2.50;;;;;;;;;;5005985;28;20033;-80
2021/05/18 05:42:16;;;;;;;14.95;2.85;;;;;;;;;;5002722;28;20110;-80
2021/05/18 05:44:45;;;;;;;13.98;2.78;;;;;;;;;;5009186;28;20826;-83
2021/05/18 05:47:17;;;;;;;13.45;2.88;;;;;;;;;;5004035;28;20052;-83
2021/05/18 05:49:47;;;;;;;12.80;2.70;;;;;;;;;;5005554;28;20041;-81
2021/05/18 05:52:19;;;;;;;17.08;2.72;;;;;;;;;;5003631;28;20025;-80
2021/05/18 05:54:49;;;;;;;13.73;3.05;;;;;;;;;;5009675;28;20405;-82
2021/05/18 05:57:18;;;;;;;14.90;2.78;;;;;;;;;;5002265;28;20047;-81
2021/05/18 05:59:47;;;;;;;13.95;2.83;;;;;;;;;;5007072;28;20083;-81
2021/05/18 06:02:15;;;;;;;14.90;2.88;;;;;;;;;;5006190;28;20119;-79
2021/05/18 06:04:46;;;;;;;13.82;2.75;;;;;;;;;;5010159;28;20045;-82
2021/05/18 06:07:13;;;;;;;14.15;2.70;;;;;;;;;;4986415;28;20025;-81
2021/05/18 06:09:42;;;;;;;13.23;2.33;;;;;;;;;;4990494;28;20098;-82
2021/05/18 06:42:43;;;;;;;14.60;2.85;;;;;;;;;;5012645;28;20071;-81
2021/05/18 06:48:02;;;;;;;11.40;2.58;;;;;;;;;;5005387;28;20092;-82
2021/05/18 06:50:32;;;;;;;12.25;2.70;;;;;;;;;;4990039;28;20033;-81
2021/05/18 06:53:01;;;;;;;13.57;2.78;;;;;;;;;;4997380;28;20022;-84
2021/05/18 06:55:32;;;;;;;15.40;2.55;;;;;;;;;;5017066;28;20097;-83
2021/05/18 06:58:07;;;;;;;13.93;2.50;;;;;;;;;;5017045;28;20149;-83
2021/05/18 07:00:38;;;;;;;17.65;3.20;;;;;;;;;;5002870;28;20037;-85
2021/05/18 07:03:11;;;;;;;11.43;2.40;;;;;;;;;;5013956;28;20097;-85
2021/05/18 07:10:54;;;;;;;11.88;2.10;;;;;;;;;;5032267;28;20107;-84
2021/05/18 07:13:22;;;;;;;10.15;2.08;;;;;;;;;;5032475;28;20029;-85
2021/05/18 07:15:50;;;;;;;12.35;2.20;;;;;;;;;;5016943;28;20056;-84
2021/05/18 07:18:22;;;;;;;11.35;1.92;;;;;;;;;;5010756;28;20044;-82
2021/05/18 07:21:02;;;;;;;12.02;2.17;;;;;;;;;;5007702;28;20854;-86
2021/05/18 07:23:33;;;;;;;13.95;2.33;;;;;;;;;;5023408;28;20030;-85
2021/05/18 07:26:03;;;;;;;13.93;2.40;;;;;;;;;;5016565;28;20069;-84
2021/05/18 07:28:34;;;;;;;13.00;2.30;;;;;;;;;;5021739;28;20060;-83
2021/05/18 07:31:01;;;;;;;12.80;2.03;;;;;;;;;;5002081;28;20804;-85
2021/05/18 07:33:29;;;;;;;10.90;1.80;;;;;;;;;;5016715;28;20029;-81
2021/05/18 07:36:07;;;;;;;12.48;2.28;;;;;;;;;;5012438;28;20028;-80
2021/05/18 07:38:38;;;;;;;15.02;2.38;;;;;;;;;;5013958;28;20057;-81
2021/05/18 07:41:08;;;;;;;10.32;1.83;;;;;;;;;;4987837;28;20037;-80
2021/05/18 07:43:38;;;;;;;12.32;2.08;;;;;;;;;;5009516;28;20033;-82
2021/05/18 07:46:12;;;;;;;12.07;2.15;;;;;;;;;;5005957;28;20033;-80
2021/05/18 07:51:41;;;;;;;9.07;1.67;;;;;;;;;;5011637;28;20038;-81
2021/05/18 07:59:57;;;;;;;13.23;2.13;;;;;;;;;;4932493;28;20119;-81
2021/05/18 08:05:43;;;;;;;12.18;2.42;;;;;;;;;;4938611;28;20043;-79
2021/05/18 08:08:17;;;;;;;17.55;2.60;;;;;;;;;;4906476;29;20058;-80
2021/05/18 08:10:52;;;;;;;11.63;2.17;;;;;;;;;;4912151;29;20048;-80
2021/05/18 08:13:34;;;;;;;12.98;2.50;;;;;;;;;;4909058;29;20059;-81
2021/05/18 08:16:43;;;;;;;12.43;2.30;;;;;;;;;;4905436;29;20044;-82
2021/05/18 08:19:21;;;;;;;11.77;2.42;;;;;;;;;;4906869;29;20120;-81
2021/05/18 08:22:29;;;;;;;16.27;5.03;;;;;;;;;;4913747;29;20053;-80
2021/05/18 09:49:57;;;;;;;12.77;2.20;;;;;;;;;;5007606;28;20095;-79
2021/05/18 10:37:19;;;;;;;11.02;1.90;;;;;;;;;;5006004;28;20029;-82
2021/05/18 10:39:46;;;;;;;13.13;2.50;;;;;;;;;;5006697;28;20034;-81
2021/05/18 10:42:16;;;;;;;15.48;3.25;;;;;;;;;;5004427;28;20038;-80
2021/05/18 10:44:58;;;;;;;11.40;2.30;;;;;;;;;;5005595;28;20033;-82
2021/05/18 10:48:00;;;;;;;14.70;2.83;;;;;;;;;;5007525;28;20030;-81
2021/05/18 10:50:42;;;;;;;9.43;2.10;;;;;;;;;;4929743;28;20527;-82
2021/05/18 10:53:21;;;;;;;13.00;2.15;;;;;;;;;;4926223;28;20039;-82
2021/05/18 10:56:06;;;;;;;11.05;1.95;;;;;;;;;;4927615;28;20066;-80
2021/05/18 10:58:34;;;;;;;10.07;1.85;;;;;;;;;;4933613;28;20032;-82
2021/05/18 11:01:06;;;;;;;10.57;2.00;;;;;;;;;;4910541;28;20067;-82
2021/05/18 11:03:36;;;;;;;12.65;2.55;;;;;;;;;;4913224;28;20087;-82
2021/05/18 11:06:09;;;;;;;7.20;1.60;;;;;;;;;;4906950;28;20046;-82
2021/05/18 11:08:36;;;;;;;11.23;1.98;;;;;;;;;;4931284;28;20510;-81
2021/05/18 11:11:04;;;;;;;9.02;1.75;;;;;;;;;;4908611;28;20138;-81
2021/05/18 11:13:36;;;;;;;10.48;2.00;;;;;;;;;;4913214;28;21048;-85
2021/05/18 11:16:16;;;;;;;7.55;1.55;;;;;;;;;;4932916;28;20147;-82
2021/05/18 11:18:47;;;;;;;10.18;1.90;;;;;;;;;;4905893;28;20035;-82
2021/05/18 11:21:16;;;;;;;9.30;1.80;;;;;;;;;;4923756;28;20047;-82
2021/05/18 11:23:44;;;;;;;9.00;1.63;;;;;;;;;;4936704;28;20046;-81
2021/05/18 11:26:12;;;;;;;7.55;1.58;;;;;;;;;;4961609;28;20033;-81
2021/05/18 11:28:51;;;;;;;8.82;1.85;;;;;;;;;;5011337;28;20037;-83
2021/05/18 11:31:26;;;;;;;7.43;1.58;;;;;;;;;;5011191;28;20045;-83
2021/05/18 11:34:00;;;;;;;10.00;1.85;;;;;;;;;;5014796;28;20041;-83
2021/05/18 11:36:34;;;;;;;8.90;1.70;;;;;;;;;;5011406;28;20021;-82
2021/05/18 11:39:14;;;;;;;8.70;1.88;;;;;;;;;;5006032;28;20036;-84
2021/05/18 11:41:43;;;;;;;9.20;1.98;;;;;;;;;;5011292;28;20072;-87
2021/05/18 11:44:36;;;;;;;9.07;1.77;;;;;;;;;;5006143;28;20041;-85
2021/05/18 11:47:04;;;;;;;11.65;2.33;;;;;;;;;;5003249;28;20030;-83
2021/05/18 11:49:31;;;;;;;9.40;1.92;;;;;;;;;;5015069;28;20029;-85
2021/05/18 11:51:59;;;;;;;7.90;1.95;;;;;;;;;;5009973;28;20872;-85
2021/05/18 11:54:28;;;;;;;9.20;1.77;;;;;;;;;;5015104;28;20108;-84
2021/05/18 11:56:57;;;;;;;8.32;1.60;;;;;;;;;;5007091;28;20128;-85
2021/05/18 11:59:25;;;;;;;8.73;1.42;;;;;;;;;;5015505;28;20048;-84
2021/05/18 12:02:13;;;;;;;7.32;1.60;;;;;;;;;;5011485;28;20053;-84
2021/05/18 12:04:42;;;;;;;11.65;2.25;;;;;;;;;;4978905;28;20135;-85
2021/05/18 12:07:12;;;;;;;8.32;1.50;;;;;;;;;;5008565;28;20860;-84
2021/05/18 12:09:44;;;;;;;9.52;1.80;;;;;;;;;;4994521;28;20176;-83
2021/05/18 12:12:19;;;;;;;9.73;2.08;;;;;;;;;;5008058;28;20878;-84
2021/05/18 12:14:55;;;;;;;8.57;1.60;;;;;;;;;;5007979;28;20482;-84
2021/05/18 12:17:24;;;;;;;8.65;1.90;;;;;;;;;;4999300;28;20045;-85
2021/05/18 12:19:55;;;;;;;11.77;2.05;;;;;;;;;;4995981;28;20136;-84
2021/05/18 12:22:23;;;;;;;10.55;1.80;;;;;;;;;;5010084;28;20109;-86
2021/05/18 12:24:50;;;;;;;8.75;1.65;;;;;;;;;;5013275;28;20116;-86
2021/05/18 12:27:18;;;;;;;8.45;1.80;;;;;;;;;;4993287;28;20173;-85
2021/05/18 12:29:58;;;;;;;8.90;1.60;;;;;;;;;;4993138;28;20064;-85
2021/05/18 12:32:38;;;;;;;9.63;1.85;;;;;;;;;;4988185;28;20056;-84
2021/05/18 12:35:05;;;;;;;8.20;1.50;;;;;;;;;;4994669;28;20049;-85
2021/05/18 12:37:45;;;;;;;9.07;1.60;;;;;;;;;;5013875;28;20068;-85
2021/05/18 12:40:20;;;;;;;7.90;1.45;;;;;;;;;;4999619;28;21377;-85
2021/05/18 12:42:47;;;;;;;8.52;1.40;;;;;;;;;;5018966;28;20705;-85
2021/05/18 12:45:24;;;;;;;11.73;1.52;;;;;;;;;;5013005;28;20029;-88
2021/05/18 12:48:00;;;;;;;7.85;1.40;;;;;;;;;;5029166;28;20045;-85
2021/05/18 12:50:51;;;;;;;7.22;1.30;;;;;;;;;;5013639;28;20084;-86
2021/05/18 12:53:32;;;;;;;7.50;1.00;;;;;;;;;;5010788;28;20021;-81
2021/05/18 12:55:59;;;;;;;6.18;1.20;;;;;;;;;;5005525;28;20037;-84
2021/05/18 12:58:32;;;;;;;10.32;1.67;;;;;;;;;;5009362;28;20141;-83
2021/05/18 13:01:09;;;;;;;8.55;1.52;;;;;;;;;;5006364;28;20476;-83
2021/05/18 13:03:41;;;;;;;7.63;1.20;;;;;;;;;;4989086;28;20037;-83
2021/05/18 13:06:09;;;;;;;7.85;1.42;;;;;;;;;;5007646;28;20048;-83
2021/05/18 13:08:40;;;;;;;6.50;1.48;;;;;;;;;;5010166;28;20044;-82
2021/05/18 13:13:58;;;;;;;8.45;1.30;;;;;;;;;;5012951;28;20098;-82
2021/05/18 13:16:34;;;;;;;6.97;1.38;;;;;;;;;;5026597;28;20045;-83
2021/05/18 13:19:12;;;;;;;7.47;1.30;;;;;;;;;;5006855;28;20045;-81
2021/05/18 13:21:57;;;;;;;8.65;1.30;;;;;;;;;;5002038;28;20040;-83
2021/05/18 13:27:28;;;;;;;7.28;1.10;;;;;;;;;;4983646;28;20067;-82
2021/05/18 13:29:55;;;;;;;5.10;1.20;;;;;;;;;;5005984;28;20048;-80
2021/05/18 13:32:25;;;;;;;8.25;1.40;;;;;;;;;;5015338;28;20021;-87
2021/05/18 13:34:51;;;;;;;6.43;1.25;;;;;;;;;;5004871;28;20056;-83
2021/05/18 13:37:19;;;;;;;6.53;1.27;;;;;;;;;;5004810;28;20037;-82
2021/05/18 13:39:46;;;;;;;6.10;1.20;;;;;;;;;;5008906;28;20022;-82
2021/05/18 13:42:13;;;;;;;6.78;1.30;;;;;;;;;;5011778;28;20710;-83
2021/05/18 13:44:40;;;;;;;7.03;1.45;;;;;;;;;;5008039;28;20057;-82
2021/05/18 13:47:08;;;;;;;7.20;1.13;;;;;;;;;;5000632;28;20034;-84
2021/05/18 13:49:35;;;;;;;5.80;0.90;;;;;;;;;;5007664;28;20208;-83
2021/05/18 13:52:04;;;;;;;7.97;1.10;;;;;;;;;;4984883;28;20033;-84
2021/05/18 13:54:35;;;;;;;7.85;1.30;;;;;;;;;;5006462;28;20048;-82
2021/05/18 13:57:02;;;;;;;7.53;1.05;;;;;;;;;;5000779;28;20037;-84
2021/05/18 13:59:32;;;;;;;6.85;1.17;;;;;;;;;;4996181;28;20053;-83
2021/05/18 14:02:10;;;;;;;8.73;1.40;;;;;;;;;;5005414;28;20066;-83
2021/05/18 14:04:38;;;;;;;8.25;1.15;;;;;;;;;;5018533;28;20037;-81
2021/05/18 14:07:39;;;;;;;11.60;1.27;;;;;;;;;;5006066;28;20048;-82
2021/05/18 14:10:12;;;;;;;8.10;1.30;;;;;;;;;;5002555;28;20042;-81
2021/05/18 14:12:40;;;;;;;5.82;1.25;;;;;;;;;;5001880;28;20033;-82
2021/05/18 14:15:07;;;;;;;6.03;1.15;;;;;;;;;;4985016;28;20036;-82
2021/05/18 14:17:37;;;;;;;6.55;1.23;;;;;;;;;;4996852;28;20909;-85
2021/05/18 14:20:06;;;;;;;7.78;1.42;;;;;;;;;;4981044;28;20043;-82
2021/05/18 14:22:32;;;;;;;7.63;1.48;;;;;;;;;;4999409;28;20041;-82
2021/05/18 14:25:07;;;;;;;9.60;1.30;;;;;;;;;;4986260;28;20049;-82
2021/05/18 14:27:36;;;;;;;9.98;1.48;;;;;;;;;;4962195;28;20954;-81
2021/05/18 14:30:08;;;;;;;7.78;1.30;;;;;;;;;;4963976;28;20030;-83
2021/05/18 14:32:37;;;;;;;5.30;1.05;;;;;;;;;;4935762;28;20591;-80
2021/05/18 14:35:07;;;;;;;7.45;1.50;;;;;;;;;;4959752;28;20104;-82
2021/05/18 14:37:36;;;;;;;8.23;1.42;;;;;;;;;;4948648;28;20132;-82
2021/05/18 14:40:08;;;;;;;6.35;1.00;;;;;;;;;;4958895;28;20129;-82
2021/05/18 14:42:57;;;;;;;8.88;1.60;;;;;;;;;;4966262;28;20048;-83
2021/05/18 14:45:29;;;;;;;7.15;1.55;;;;;;;;;;4963627;28;20045;-83
2021/05/18 14:56:00;;;;;;;6.35;1.20;;;;;;;;;;4967241;28;20367;-81
2021/05/18 14:58:27;;;;;;;10.35;1.77;;;;;;;;;;4970129;28;20054;-82
2021/05/18 15:01:04;;;;;;;8.70;1.85;;;;;;;;;;4966675;28;20517;-83
2021/05/18 15:03:34;;;;;;;8.93;1.20;;;;;;;;;;4950667;28;20034;-83
2021/05/18 15:06:04;;;;;;;10.27;4.30;;;;;;;;;;4947995;28;20039;-84
2021/05/18 15:08:31;;;;;;;8.13;1.15;;;;;;;;;;4968853;28;20101;-81
2021/05/18 15:11:02;;;;;;;6.15;1.20;;;;;;;;;;4964153;28;20030;-82
2021/05/18 15:13:40;;;;;;;8.40;1.40;;;;;;;;;;4937731;28;20137;-84
2021/05/18 15:16:09;;;;;;;10.35;1.48;;;;;;;;;;4941788;28;20035;-84
2021/05/18 15:19:03;;;;;;;7.25;1.27;;;;;;;;;;4974103;28;20038;-83
2021/05/18 15:21:29;;;;;;;7.55;1.42;;;;;;;;;;4986707;28;20046;-82
2021/05/18 15:23:57;;;;;;;6.22;1.40;;;;;;;;;;4989473;28;20036;-83
2021/05/18 15:26:24;;;;;;;6.53;1.30;;;;;;;;;;4989913;28;20025;-87
2021/05/18 15:28:54;;;;;;;7.40;1.48;;;;;;;;;;4996021;28;20560;-82
2021/05/18 15:31:22;;;;;;;5.63;1.13;;;;;;;;;;4992950;28;20181;-83
2021/05/18 15:33:53;;;;;;;6.93;1.10;;;;;;;;;;4992602;28;20026;-84
2021/05/18 15:36:20;;;;;;;6.63;1.35;;;;;;;;;;4999594;28;20030;-83
2021/05/18 15:38:48;;;;;;;7.38;1.20;;;;;;;;;;4993361;28;20764;-84
2021/05/18 15:41:19;;;;;;;7.75;1.40;;;;;;;;;;4988078;28;20144;-84
2021/05/18 15:43:47;;;;;;;9.48;1.20;;;;;;;;;;5007115;28;20030;-84
2021/05/18 15:52:54;;;;;;;6.40;1.35;;;;;;;;;;4994101;28;20068;-83
2021/05/18 15:55:21;;;;;;;7.65;1.17;;;;;;;;;;4989549;28;20041;-82
2021/05/18 15:57:47;;;;;;;6.43;1.10;;;;;;;;;;4989605;28;20057;-81
2021/05/18 16:00:16;;;;;;;7.20;1.25;;;;;;;;;;4981144;28;20617;-81
2021/05/18 16:02:43;;;;;;;7.45;1.17;;;;;;;;;;4989439;28;20487;-84
2021/05/18 16:05:11;;;;;;;4.18;1.02;;;;;;;;;;5002508;28;20034;-85
2021/05/18 16:07:41;;;;;;;4.15;1.00;;;;;;;;;;4987171;28;20060;-85
2021/05/18 16:10:25;;;;;;;5.03;1.10;;;;;;;;;;5010023;28;20080;-83
2021/05/18 16:12:52;;;;;;;10.18;1.10;;;;;;;;;;5007496;28;20025;-84
2021/05/18 16:15:33;;;;;;;7.32;1.40;;;;;;;;;;5011026;28;20037;-83
2021/05/18 16:18:00;;;;;;;6.15;1.10;;;;;;;;;;5005135;28;20032;-84
2021/05/18 16:20:28;;;;;;;7.25;1.30;;;;;;;;;;5010042;28;20034;-83
2021/05/18 16:22:57;;;;;;;8.75;1.15;;;;;;;;;;5004032;28;20044;-84
2021/05/18 16:25:25;;;;;;;6.97;1.20;;;;;;;;;;5011648;28;20042;-84
2021/05/18 16:27:52;;;;;;;6.15;0.95;;;;;;;;;;5013457;28;20025;-84
2021/05/18 16:30:20;;;;;;;7.07;1.08;;;;;;;;;;5009691;28;20033;-83
2021/05/18 16:32:48;;;;;;;4.93;0.90;;;;;;;;;;5010852;28;20116;-84
2021/05/18 16:35:16;;;;;;;6.30;1.02;;;;;;;;;;5006512;28;20588;-81
2021/05/18 16:37:47;;;;;;;8.77;1.20;;;;;;;;;;5008415;28;20080;-84
2021/05/18 16:40:15;;;;;;;9.13;1.30;;;;;;;;;;5009218;28;20053;-83
2021/05/18 16:42:44;;;;;;;7.00;1.35;;;;;;;;;;5000530;28;21336;-86
2021/05/18 16:45:14;;;;;;;6.95;1.27;;;;;;;;;;5009525;28;20092;-83
2021/05/18 16:47:41;;;;;;;6.43;1.10;;;;;;;;;;5008190;28;20045;-84
2021/05/18 16:50:09;;;;;;;10.13;1.67;;;;;;;;;;5020193;28;20357;-81
2021/05/18 16:52:39;;;;;;;9.23;1.30;;;;;;;;;;5004418;28;20055;-81
2021/05/18 16:55:08;;;;;;;6.22;1.25;;;;;;;;;;5001847;28;20036;-84
2021/05/18 16:57:50;;;;;;;6.32;1.40;;;;;;;;;;5009341;28;20476;-84
2021/05/18 17:00:19;;;;;;;6.22;1.27;;;;;;;;;;4997190;28;20439;-81
2021/05/18 17:02:47;;;;;;;11.68;1.30;;;;;;;;;;4985485;28;20124;-80
2021/05/18 17:05:15;;;;;;;8.32;1.38;;;;;;;;;;4997268;28;20710;-81
2021/05/18 17:07:44;;;;;;;10.00;1.40;;;;;;;;;;5001149;28;20025;-81
2021/05/18 17:10:11;;;;;;;8.18;1.50;;;;;;;;;;4998360;28;20049;-81
2021/05/18 17:12:38;;;;;;;11.95;1.58;;;;;;;;;;5000185;28;20053;-82
2021/05/18 17:15:08;;;;;;;9.27;1.27;;;;;;;;;;4998286;28;20484;-82
2021/05/18 17:17:37;;;;;;;6.57;1.10;;;;;;;;;;5001335;28;20030;-80
2021/05/18 17:20:06;;;;;;;9.80;1.58;;;;;;;;;;5007041;28;20155;-83
2021/05/18 17:22:34;;;;;;;5.72;1.42;;;;;;;;;;4998277;28;20401;-81
2021/05/18 17:25:02;;;;;;;10.82;1.85;;;;;;;;;;4996791;28;20510;-81
2021/05/18 17:27:29;;;;;;;8.40;1.52;;;;;;;;;;5002769;28;20034;-83
2021/05/18 17:29:55;;;;;;;8.10;1.40;;;;;;;;;;4996510;28;20454;-81
2021/05/18 17:32:24;;;;;;;7.93;1.60;;;;;;;;;;5014235;28;20037;-81
2021/05/18 17:34:55;;;;;;;10.88;1.50;;;;;;;;;;4999997;28;20104;-79
2021/05/18 17:37:24;;;;;;;9.82;1.70;;;;;;;;;;4986812;28;20050;-83
2021/05/18 17:40:01;;;;;;;8.80;1.70;;;;;;;;;;5002604;28;20037;-83
2021/05/18 17:42:28;;;;;;;8.30;1.75;;;;;;;;;;5006686;28;20025;-85
2021/05/18 17:45:01;;;;;;;8.88;1.60;;;;;;;;;;5004384;28;20037;-82
2021/05/18 17:47:43;;;;;;;8.57;1.70;;;;;;;;;;5007450;28;20453;-82
2021/05/18 17:50:16;;;;;;;10.00;1.77;;;;;;;;;;5007992;28;20029;-80
2021/05/18 17:53:03;;;;;;;7.38;1.30;;;;;;;;;;5014369;28;20029;-81
2021/05/18 17:55:34;;;;;;;9.05;1.58;;;;;;;;;;5014167;28;20037;-80
2021/05/18 17:58:02;;;;;;;7.57;1.65;;;;;;;;;;4988918;28;20037;-81
2021/05/18 18:00:31;;;;;;;9.25;1.58;;;;;;;;;;5004901;28;20052;-81
2021/05/18 18:02:58;;;;;;;10.55;1.67;;;;;;;;;;4997940;28;20112;-83
2021/05/18 18:05:26;;;;;;;11.30;1.80;;;;;;;;;;5004148;28;20029;-81
2021/05/18 18:07:54;;;;;;;10.35;1.50;;;;;;;;;;5002669;28;20029;-80
2021/05/18 18:10:22;;;;;;;8.63;1.70;;;;;;;;;;5004595;28;20808;-81
2021/05/18 18:12:49;;;;;;;7.57;1.45;;;;;;;;;;5006485;28;20103;-82
2021/05/18 18:15:22;;;;;;;11.00;1.70;;;;;;;;;;4999351;28;20041;-82
2021/05/18 18:17:49;;;;;;;9.43;1.85;;;;;;;;;;5002157;28;20045;-80
2021/05/18 18:20:18;;;;;;;12.73;1.75;;;;;;;;;;5000638;28;20298;-82
2021/05/18 18:22:45;;;;;;;8.70;1.60;;;;;;;;;;5002802;28;20030;-81
2021/05/18 18:25:14;;;;;;;9.30;1.60;;;;;;;;;;5010554;28;20435;-80
2021/05/18 18:27:42;;;;;;;13.48;3.25;;;;;;;;;;5007094;28;20034;-81
2021/05/18 18:30:11;;;;;;;10.13;2.13;;;;;;;;;;4985352;28;20029;-82
2021/05/18 18:32:38;;;;;;;10.70;1.95;;;;;;;;;;5005275;28;20581;-83
2021/05/18 18:35:05;;;;;;;9.20;1.65;;;;;;;;;;5007369;28;20388;-83
2021/05/18 18:37:36;;;;;;;8.20;1.70;;;;;;;;;;5006529;28;20060;-83
2021/05/18 18:40:12;;;;;;;10.98;2.35;;;;;;;;;;5001672;28;20263;-82
2021/05/18 18:42:44;;;;;;;12.05;2.08;;;;;;;;;;5009372;28;20552;-82
2021/05/18 18:45:13;;;;;;;10.30;1.90;;;;;;;;;;5005414;28;20057;-82
2021/05/18 18:47:41;;;;;;;8.93;1.70;;;;;;;;;;5023964;28;20021;-81
2021/05/18 18:50:13;;;;;;;12.77;2.38;;;;;;;;;;5011833;28;20082;-82
2021/05/18 18:52:55;;;;;;;12.60;2.20;;;;;;;;;;5008584;28;20071;-82
2021/05/18 18:55:26;;;;;;;10.13;2.00;;;;;;;;;;5011359;28;20095;-82
2021/05/18 18:57:54;;;;;;;12.25;2.00;;;;;;;;;;5014241;28;20566;-84
2021/05/18 19:00:24;;;;;;;8.93;1.65;;;;;;;;;;5007294;28;20087;-85
2021/05/18 19:03:06;;;;;;;9.05;1.83;;;;;;;;;;5012286;28;20071;-84
2021/05/18 19:09:02;;;;;;;11.52;1.88;;;;;;;;;;5003344;28;20040;-83
2021/05/18 19:14:07;;;;;;;10.73;2.08;;;;;;;;;;5002333;28;20029;-80
2021/05/18 19:16:43;;;;;;;13.60;2.05;;;;;;;;;;5006201;28;20057;-80
2021/05/18 19:19:12;;;;;;;13.32;2.60;;;;;;;;;;4998719;28;20033;-80
2021/05/18 19:21:40;;;;;;;10.02;2.00;;;;;;;;;;4983569;28;20510;-81
2021/05/18 19:24:07;;;;;;;10.48;2.00;;;;;;;;;;4994722;28;20061;-80
2021/05/18 19:26:35;;;;;;;9.77;2.58;;;;;;;;;;4995054;28;20083;-81
2021/05/18 19:29:10;;;;;;;10.15;1.90;;;;;;;;;;4993164;28;20041;-81
2021/05/18 19:31:36;;;;;;;9.45;1.80;;;;;;;;;;4997851;28;20099;-81
2021/05/18 19:34:05;;;;;;;9.30;2.00;;;;;;;;;;4997077;28;20447;-81
2021/05/18 19:42:40;;;;;;;11.88;2.22;;;;;;;;;;4903116;29;20059;-80
2021/05/18 19:50:27;;;;;;;13.23;2.40;;;;;;;;;;4893789;29;20217;-79
2021/05/18 19:53:24;;;;;;;11.82;3.22;;;;;;;;;;4884262;29;20123;-80
2021/05/18 19:55:54;;;;;;;12.45;2.40;;;;;;;;;;4902125;29;20040;-83
2021/05/18 20:10:17;;;;;;;14.40;3.60;;;;;;;;;;4894153;29;20243;-85
2021/05/18 20:17:51;;;;;;;16.80;3.60;;;;;;;;;;4936678;28;20113;-84
2021/05/18 20:20:20;;;;;;;11.98;2.90;;;;;;;;;;5003331;28;20083;-85
2021/05/18 20:22:49;;;;;;;15.00;2.72;;;;;;;;;;5003980;28;20029;-83